createdAt,value
2019-02-15T07:58:03.630Z,2.50
2019-02-15T08:00:32.959Z,2.60
2019-02-15T08:03:02.312Z,2.70
2019-02-15T08:05:31.681Z,2.80
2019-02-15T08:08:01.012Z,3.00
2019-02-15T08:10:30.550Z,3.20
2019-02-15T08:13:02.072Z,3.30
2019-02-15T08:15:36.186Z,3.50
2019-02-15T08:18:02.612Z,3.60
2019-02-15T08:20:31.921Z,3.70
2019-02-15T08:23:01.234Z,3.70
2019-02-15T08:25:30.854Z,3.90
2019-02-15T08:28:00.625Z,4.10
2019-02-15T08:30:29.904Z,4.40
2019-02-15T08:32:59.195Z,4.80
2019-02-15T08:35:28.525Z,5.00
2019-02-15T08:37:58.168Z,5.50
2019-02-15T08:40:27.469Z,5.80
2019-02-15T08:42:56.800Z,6.20
2019-02-15T08:45:26.070Z,6.30
2019-02-15T08:47:55.360Z,6.60
2019-02-15T08:50:24.721Z,6.70
2019-02-15T08:52:55.180Z,6.90
2019-02-15T08:55:26.664Z,6.90
2019-02-15T08:57:55.986Z,6.90
2019-02-15T09:00:26.229Z,7.00
2019-02-15T09:02:55.554Z,7.10
2019-02-15T09:05:24.991Z,7.20
2019-02-15T09:07:54.306Z,7.40
2019-02-15T09:10:23.683Z,7.50
2019-02-15T09:12:52.982Z,7.60
2019-02-15T09:15:22.675Z,7.80
2019-02-15T09:17:51.981Z,8.00
2019-02-15T09:20:21.290Z,8.10
2019-02-15T09:22:50.637Z,8.00
2019-02-15T09:25:19.936Z,8.10
2019-02-15T09:28:11.292Z,8.10
2019-02-15T09:30:40.670Z,8.30
2019-02-15T09:33:09.987Z,8.50
2019-02-15T09:35:39.316Z,8.70
2019-02-15T09:38:08.914Z,8.80
2019-02-15T09:40:38.232Z,8.90
2019-02-15T09:43:07.513Z,8.90
2019-02-15T09:45:36.814Z,8.90
2019-02-15T09:54:15.094Z,9.10
2019-02-15T10:10:17.364Z,9.50
2019-02-15T10:12:46.879Z,9.50
2019-02-15T10:15:16.279Z,9.60
2019-02-15T11:11:51.911Z,11.80
2019-02-15T11:14:21.292Z,11.80
2019-02-15T11:16:50.664Z,12.00
2019-02-15T11:19:20.129Z,12.10
2019-02-15T11:21:49.417Z,12.20
2019-02-15T11:24:18.732Z,12.30
2019-02-15T11:26:48.054Z,12.40
2019-02-15T11:29:17.393Z,12.40
2019-02-15T11:31:46.810Z,12.50
2019-02-15T11:34:16.132Z,12.70
2019-02-15T11:36:46.032Z,12.70
2019-02-15T11:39:16.050Z,12.80
2019-02-15T11:41:46.064Z,12.80
2019-02-15T11:44:15.832Z,12.90
2019-02-15T11:46:45.991Z,13.00
2019-02-15T11:49:15.688Z,13.10
2019-02-15T11:51:45.663Z,13.20
2019-02-15T11:54:23.302Z,13.20
2019-02-15T11:56:47.397Z,13.30
2019-02-15T11:59:17.262Z,13.40
2019-02-15T12:01:47.274Z,13.40
2019-02-15T12:04:17.151Z,13.40
2019-02-15T12:06:47.115Z,13.50
2019-02-15T12:09:17.135Z,13.60
2019-02-15T12:11:47.135Z,13.70
2019-02-15T12:14:16.947Z,13.70
2019-02-15T12:16:51.020Z,13.80
2019-02-15T12:19:21.038Z,13.90
2019-02-15T12:21:50.525Z,13.80
2019-02-15T12:24:20.124Z,13.90
2019-02-15T12:26:49.718Z,13.90
2019-02-15T12:29:19.329Z,13.90
2019-02-15T12:31:49.874Z,13.90
2019-02-15T12:34:19.296Z,13.80
2019-02-15T12:36:48.784Z,13.90
2019-02-15T12:39:18.451Z,13.90
2019-02-15T12:41:48.023Z,13.90
2019-02-15T12:44:17.627Z,14.00
2019-02-15T12:46:47.126Z,14.00
2019-02-15T12:49:16.804Z,14.10
2019-02-15T12:51:46.335Z,14.20
2019-02-15T12:54:16.030Z,14.10
2019-02-15T12:56:45.501Z,14.20
2019-02-15T12:59:15.201Z,14.10
2019-02-15T13:01:44.671Z,14.20
2019-02-15T13:04:14.280Z,14.30
2019-02-15T13:06:43.766Z,14.30
2019-02-15T13:09:13.333Z,14.30
2019-02-15T13:11:42.752Z,14.30
2019-02-15T13:14:12.429Z,14.30
2019-02-15T13:16:41.988Z,14.40
2019-02-15T13:19:11.550Z,14.40
2019-02-15T13:21:41.083Z,14.50
2019-02-15T13:24:10.726Z,14.50
2019-02-15T13:26:40.225Z,14.50
2019-02-15T13:29:09.787Z,14.60
2019-02-15T13:31:39.548Z,14.60
2019-02-15T13:34:09.056Z,14.70
2019-02-15T13:36:38.537Z,14.70
2019-02-15T13:39:09.836Z,14.70
2019-02-15T13:41:39.230Z,14.70
2019-02-15T13:44:08.647Z,14.70
2019-02-15T13:46:38.108Z,14.80
2019-02-15T13:49:07.844Z,14.70
2019-02-15T13:51:37.237Z,14.80
2019-02-15T13:54:06.831Z,14.80
2019-02-15T13:56:36.273Z,14.80
2019-02-15T13:59:05.743Z,14.80
2019-02-15T14:01:35.251Z,14.80
2019-02-15T14:04:04.758Z,14.80
2019-02-15T14:06:34.512Z,14.80
2019-02-15T14:09:05.312Z,14.80
2019-02-15T14:11:34.759Z,14.80
2019-02-15T14:14:04.297Z,14.80
2019-02-15T14:16:33.908Z,14.80
2019-02-15T14:19:03.370Z,14.80
2019-02-15T14:21:32.772Z,14.80
2019-02-15T14:24:05.896Z,14.90
2019-02-15T14:26:38.498Z,14.80
2019-02-15T14:29:08.112Z,14.80
2019-02-15T14:31:37.629Z,14.80
2019-02-15T14:34:07.049Z,14.80
2019-02-15T14:36:36.566Z,14.80
2019-02-15T14:39:08.880Z,14.80
2019-02-15T14:41:38.360Z,14.80
2019-02-15T14:44:07.862Z,14.80
2019-02-15T14:46:37.447Z,14.90
2019-02-15T14:49:06.912Z,14.80
2019-02-15T14:51:36.405Z,14.80
2019-02-15T14:54:05.825Z,14.80
2019-02-15T14:56:35.331Z,14.80
2019-02-15T14:59:04.907Z,14.80
2019-02-15T15:01:34.424Z,14.80
2019-02-15T15:04:03.844Z,14.70
2019-02-15T15:06:33.432Z,14.70
2019-02-15T15:09:04.177Z,14.70
2019-02-15T15:11:33.680Z,14.70
2019-02-15T15:14:03.257Z,14.70
2019-02-15T15:16:32.792Z,14.70
2019-02-15T15:19:02.289Z,14.60
2019-02-15T15:21:31.732Z,14.60
2019-02-15T15:24:01.166Z,14.50
2019-02-15T15:26:30.580Z,14.50
2019-02-15T15:29:00.062Z,14.50
2019-02-15T15:31:29.463Z,14.50
2019-02-15T15:33:58.930Z,14.50
2019-02-15T15:36:28.460Z,14.40
2019-02-15T15:38:57.966Z,14.40
2019-02-15T15:41:27.429Z,14.40
2019-02-15T15:43:56.921Z,14.40
2019-02-15T15:46:26.425Z,14.30
2019-02-15T15:48:55.931Z,14.20
2019-02-15T15:51:25.354Z,14.20
2019-02-15T15:53:54.899Z,14.10
2019-02-15T15:56:24.429Z,14.00
2019-02-15T15:58:53.828Z,14.00
2019-02-15T16:01:23.271Z,14.00
2019-02-15T16:03:52.776Z,14.00
2019-02-15T16:06:24.409Z,13.90
2019-02-15T16:08:53.424Z,13.90
2019-02-15T16:11:23.006Z,13.80
2019-02-15T16:13:52.563Z,13.80
2019-02-15T16:16:22.012Z,13.70
2019-02-15T16:18:51.528Z,13.60
2019-02-15T16:21:22.120Z,13.50
2019-02-15T16:23:51.736Z,13.40
2019-02-15T16:26:21.320Z,13.30
2019-02-15T16:28:50.882Z,13.30
2019-02-15T16:31:20.358Z,13.20
2019-02-15T16:33:49.827Z,13.00
2019-02-15T16:36:19.327Z,12.90
2019-02-15T16:38:48.724Z,12.80
2019-02-15T16:41:18.256Z,12.70
2019-02-15T16:43:47.694Z,12.60
2019-02-15T16:46:17.316Z,12.50
2019-02-15T16:48:47.027Z,12.40
2019-02-15T16:51:16.514Z,12.30
2019-02-15T16:53:46.003Z,12.20
2019-02-15T16:56:15.566Z,12.10
2019-02-15T16:58:45.086Z,12.00
2019-02-15T17:01:14.602Z,11.90
2019-02-15T17:03:44.096Z,11.80
2019-02-15T17:06:13.686Z,11.70
2019-02-15T17:08:43.110Z,11.60
2019-02-15T17:11:12.742Z,11.50
2019-02-15T17:13:42.217Z,11.40
2019-02-15T17:16:11.786Z,11.30
2019-02-15T17:18:41.237Z,11.20
2019-02-15T17:21:10.792Z,11.10
2019-02-15T17:23:40.276Z,11.00
2019-02-15T17:26:09.821Z,10.90
2019-02-15T17:28:39.247Z,10.90
2019-02-15T17:31:08.746Z,10.80
2019-02-15T17:33:38.248Z,10.70
2019-02-15T17:36:07.845Z,10.60
2019-02-15T17:38:37.483Z,10.60
2019-02-15T17:41:07.034Z,10.50
2019-02-15T17:43:36.537Z,10.50
2019-02-15T17:46:06.038Z,10.50
2019-02-15T17:48:35.469Z,10.40
2019-02-15T17:51:04.957Z,10.40
2019-02-15T17:53:34.455Z,10.40
2019-02-15T17:56:03.859Z,10.30
2019-02-15T17:58:33.298Z,10.20
2019-02-15T18:01:02.890Z,10.10
2019-02-15T18:03:32.393Z,10.10
2019-02-15T18:06:01.841Z,10.00
2019-02-15T18:08:31.312Z,10.00
2019-02-15T18:11:00.766Z,9.90
2019-02-15T18:13:30.230Z,9.90
2019-02-15T18:15:59.810Z,9.80
2019-02-15T18:18:29.366Z,9.80
2019-02-15T18:20:59.044Z,9.70
2019-02-15T18:23:28.580Z,9.70
2019-02-15T18:25:58.139Z,9.60
2019-02-15T18:28:27.629Z,9.60
2019-02-15T18:30:57.180Z,9.50
2019-02-15T18:33:26.638Z,9.50
2019-02-15T18:35:56.113Z,9.40
2019-02-15T18:38:25.632Z,9.40
2019-02-15T18:40:55.119Z,9.40
2019-02-15T18:43:24.675Z,9.40
2019-02-15T18:45:54.162Z,9.40
2019-02-15T18:48:23.595Z,9.40
2019-02-15T18:50:53.179Z,9.40
2019-02-15T18:53:22.676Z,9.30
2019-02-15T18:55:52.086Z,9.30
2019-02-15T18:58:21.601Z,9.30
2019-02-15T19:00:51.250Z,9.20
2019-02-15T19:03:20.760Z,9.20
2019-02-15T19:05:50.374Z,9.10
2019-02-15T19:08:20.008Z,9.10
2019-02-15T19:10:49.586Z,9.10
2019-02-15T19:13:19.066Z,9.10
2019-02-15T19:15:48.664Z,9.00
2019-02-15T19:18:18.247Z,9.00
2019-02-15T19:20:47.975Z,8.90
2019-02-15T19:23:19.488Z,8.80
2019-02-15T19:25:49.110Z,8.80
2019-02-15T19:28:18.748Z,8.70
2019-02-15T19:30:48.208Z,8.70
2019-02-15T19:33:17.852Z,8.70
2019-02-15T19:35:47.362Z,8.60
2019-02-15T19:38:17.044Z,8.60
2019-02-15T19:40:46.582Z,8.50
2019-02-15T19:43:16.204Z,8.40
2019-02-15T19:45:45.949Z,8.50
2019-02-15T19:48:15.555Z,8.40
2019-02-15T19:50:45.189Z,8.30
2019-02-15T19:53:14.737Z,8.30
2019-02-15T19:55:44.297Z,8.30
2019-02-15T19:58:14.072Z,8.30
2019-02-15T20:00:43.618Z,8.20
2019-02-15T20:03:13.227Z,8.20
2019-02-15T20:05:42.676Z,8.20
2019-02-15T20:08:12.287Z,8.10
2019-02-15T20:10:41.918Z,8.10
2019-02-15T20:13:11.539Z,8.10
2019-02-15T20:15:41.074Z,8.20
2019-02-15T20:18:10.748Z,8.20
2019-02-15T20:20:40.255Z,8.20
2019-02-15T20:23:09.845Z,8.30
2019-02-15T20:25:39.369Z,8.30
2019-02-15T20:28:14.119Z,8.30
2019-02-15T20:30:40.220Z,8.20
2019-02-15T20:33:09.768Z,8.20
2019-02-15T20:35:39.221Z,8.20
2019-02-15T20:38:08.845Z,8.20
2019-02-15T20:40:38.383Z,8.10
2019-02-15T20:43:07.892Z,8.10
2019-02-15T20:45:37.455Z,8.10
2019-02-15T20:48:12.120Z,8.00
2019-02-15T20:50:38.296Z,8.00
2019-02-15T20:53:07.941Z,7.90
2019-02-15T20:55:37.531Z,7.90
2019-02-15T20:58:07.119Z,7.80
2019-02-15T21:00:36.915Z,7.80
2019-02-15T21:03:06.355Z,7.80
2019-02-15T21:05:35.900Z,7.70
2019-02-15T21:08:05.638Z,7.70
2019-02-15T21:10:35.165Z,7.70
2019-02-15T21:13:04.736Z,7.70
2019-02-15T21:15:34.348Z,7.70
2019-02-15T21:18:04.001Z,7.60
2019-02-15T21:20:33.557Z,7.60
2019-02-15T21:23:03.148Z,7.50
2019-02-15T21:25:32.712Z,7.50
2019-02-15T21:28:02.354Z,7.50
2019-02-15T21:30:31.929Z,7.50
2019-02-15T21:33:01.480Z,7.40
2019-02-15T21:35:31.048Z,7.40
2019-02-15T21:38:00.669Z,7.40
2019-02-15T21:40:30.116Z,7.30
2019-02-15T21:42:59.774Z,7.30
2019-02-15T21:45:29.203Z,7.30
2019-02-15T21:47:59.231Z,7.20
2019-02-15T21:50:28.787Z,7.20
2019-02-15T21:52:58.314Z,7.20
2019-02-15T21:55:27.889Z,7.20
2019-02-15T21:58:01.449Z,7.10
2019-02-15T22:00:28.806Z,7.20
2019-02-15T22:02:58.344Z,7.20
2019-02-15T22:05:27.943Z,7.10
2019-02-15T22:07:57.582Z,7.10
2019-02-15T22:10:27.192Z,7.10
2019-02-15T22:12:56.681Z,7.10
2019-02-15T22:15:26.252Z,7.10
2019-02-15T22:17:55.763Z,7.10
2019-02-15T22:20:27.021Z,7.10
2019-02-15T22:22:56.652Z,7.20
2019-02-15T22:25:26.213Z,7.20
2019-02-15T22:27:55.821Z,7.20
2019-02-15T22:30:25.420Z,7.20
2019-02-15T22:32:55.053Z,7.20
2019-02-15T22:35:24.604Z,7.20
2019-02-15T22:37:54.187Z,7.20
2019-02-15T22:40:41.821Z,7.30
2019-02-15T22:43:19.670Z,7.20
2019-02-15T22:45:49.129Z,7.20
2019-02-15T22:48:18.712Z,7.10
2019-02-15T22:50:48.324Z,7.00
2019-02-15T22:53:18.005Z,7.10
2019-02-15T22:55:47.578Z,7.00
2019-02-15T22:58:17.191Z,7.10
2019-02-15T23:01:10.167Z,7.10
2019-02-15T23:03:39.714Z,7.00
2019-02-15T23:06:09.285Z,7.00
2019-02-15T23:08:38.836Z,7.00
2019-02-15T23:11:08.639Z,7.00
2019-02-15T23:13:40.897Z,7.00
2019-02-15T23:16:10.561Z,7.00
2019-02-15T23:18:40.022Z,6.90
2019-02-15T23:21:09.502Z,6.90
2019-02-15T23:23:38.999Z,6.80
2019-02-15T23:26:08.544Z,6.80
2019-02-15T23:28:38.201Z,6.70
2019-02-15T23:31:07.765Z,6.60
2019-02-15T23:33:37.340Z,6.60
2019-02-15T23:36:06.981Z,6.60
2019-02-15T23:38:36.478Z,6.50
2019-02-15T23:41:06.060Z,6.40
2019-02-15T23:43:35.628Z,6.40
2019-02-15T23:46:05.162Z,6.30
2019-02-15T23:48:34.610Z,6.20
2019-02-15T23:51:04.105Z,6.20
2019-02-15T23:53:33.575Z,6.10
2019-02-15T23:56:03.108Z,6.00
2019-02-15T23:58:32.614Z,6.00
